sensor_id;sensor_type;location;lat;lon;timestamp;temperature;humidity
80279;DHT22;70683;52.492;13.416;2023-07-31T00:01:33;17.40;82.40
80279;DHT22;70683;52.492;13.416;2023-07-31T00:04:00;17.40;81.40
80279;DHT22;70683;52.492;13.416;2023-07-31T00:06:26;17.40;82.60
80279;DHT22;70683;52.492;13.416;2023-07-31T00:08:53;17.40;82.50
80279;DHT22;70683;52.492;13.416;2023-07-31T00:11:19;17.30;83.60
80279;DHT22;70683;52.492;13.416;2023-07-31T00:13:46;17.30;82.50
80279;DHT22;70683;52.492;13.416;2023-07-31T00:16:13;17.30;82.80
80279;DHT22;70683;52.492;13.416;2023-07-31T00:18:39;17.20;83.20
80279;DHT22;70683;52.492;13.416;2023-07-31T00:21:06;17.20;83.40
80279;DHT22;70683;52.492;13.416;2023-07-31T00:23:32;17.30;83.10
80279;DHT22;70683;52.492;13.416;2023-07-31T00:26:00;17.20;83.00
80279;DHT22;70683;52.492;13.416;2023-07-31T00:28:26;17.10;83.30
80279;DHT22;70683;52.492;13.416;2023-07-31T00:30:54;17.20;83.60
80279;DHT22;70683;52.492;13.416;2023-07-31T00:33:21;17.20;83.40
80279;DHT22;70683;52.492;13.416;2023-07-31T00:35:48;17.20;83.40
80279;DHT22;70683;52.492;13.416;2023-07-31T00:38:15;17.20;83.90
80279;DHT22;70683;52.492;13.416;2023-07-31T00:40:42;17.10;83.50
80279;DHT22;70683;52.492;13.416;2023-07-31T00:43:08;17.10;83.30
80279;DHT22;70683;52.492;13.416;2023-07-31T00:45:35;17.10;83.80
80279;DHT22;70683;52.492;13.416;2023-07-31T00:48:02;17.00;84.30
80279;DHT22;70683;52.492;13.416;2023-07-31T00:50:29;17.10;84.00
80279;DHT22;70683;52.492;13.416;2023-07-31T00:52:56;17.10;84.60
80279;DHT22;70683;52.492;13.416;2023-07-31T00:55:22;17.10;84.40
80279;DHT22;70683;52.492;13.416;2023-07-31T00:57:50;17.10;84.50
80279;DHT22;70683;52.492;13.416;2023-07-31T01:00:19;17.00;85.20
80279;DHT22;70683;52.492;13.416;2023-07-31T01:02:46;17.10;85.30
80279;DHT22;70683;52.492;13.416;2023-07-31T01:05:13;17.10;85.20
80279;DHT22;70683;52.492;13.416;2023-07-31T01:07:49;17.20;85.50
80279;DHT22;70683;52.492;13.416;2023-07-31T01:10:20;17.10;84.60
80279;DHT22;70683;52.492;13.416;2023-07-31T01:12:47;17.20;84.70
80279;DHT22;70683;52.492;13.416;2023-07-31T01:15:14;17.20;84.80
80279;DHT22;70683;52.492;13.416;2023-07-31T01:17:43;17.20;84.90
80279;DHT22;70683;52.492;13.416;2023-07-31T01:20:27;17.30;84.20
80279;DHT22;70683;52.492;13.416;2023-07-31T01:25:46;17.20;84.80
80279;DHT22;70683;52.492;13.416;2023-07-31T01:28:14;17.30;84.70
80279;DHT22;70683;52.492;13.416;2023-07-31T01:30:44;17.20;84.80
80279;DHT22;70683;52.492;13.416;2023-07-31T01:33:12;17.20;85.10
80279;DHT22;70683;52.492;13.416;2023-07-31T01:35:42;17.20;85.20
80279;DHT22;70683;52.492;13.416;2023-07-31T01:38:08;17.20;85.90
80279;DHT22;70683;52.492;13.416;2023-07-31T01:40:35;17.20;85.60
80279;DHT22;70683;52.492;13.416;2023-07-31T01:43:02;17.20;85.60
80279;DHT22;70683;52.492;13.416;2023-07-31T01:45:28;17.20;85.50
80279;DHT22;70683;52.492;13.416;2023-07-31T01:47:55;17.20;85.90
80279;DHT22;70683;52.492;13.416;2023-07-31T01:50:22;17.30;85.60
80279;DHT22;70683;52.492;13.416;2023-07-31T01:52:48;17.30;85.60
80279;DHT22;70683;52.492;13.416;2023-07-31T01:55:15;17.30;85.70
80279;DHT22;70683;52.492;13.416;2023-07-31T01:57:41;17.40;85.00
80279;DHT22;70683;52.492;13.416;2023-07-31T02:00:08;17.40;85.20
80279;DHT22;70683;52.492;13.416;2023-07-31T02:02:35;17.40;85.00
80279;DHT22;70683;52.492;13.416;2023-07-31T02:05:02;17.40;84.40
80279;DHT22;70683;52.492;13.416;2023-07-31T02:07:28;17.50;83.60
80279;DHT22;70683;52.492;13.416;2023-07-31T02:09:55;17.50;83.90
80279;DHT22;70683;52.492;13.416;2023-07-31T02:12:22;17.40;84.10
80279;DHT22;70683;52.492;13.416;2023-07-31T02:14:48;17.50;83.90
80279;DHT22;70683;52.492;13.416;2023-07-31T02:17:15;17.50;85.00
80279;DHT22;70683;52.492;13.416;2023-07-31T02:19:41;17.50;84.50
80279;DHT22;70683;52.492;13.416;2023-07-31T02:22:08;17.50;83.80
80279;DHT22;70683;52.492;13.416;2023-07-31T02:24:34;17.50;84.30
80279;DHT22;70683;52.492;13.416;2023-07-31T02:27:01;17.50;84.80
80279;DHT22;70683;52.492;13.416;2023-07-31T02:29:28;17.40;84.60
80279;DHT22;70683;52.492;13.416;2023-07-31T02:31:54;17.50;84.20
80279;DHT22;70683;52.492;13.416;2023-07-31T02:34:21;17.50;83.50
80279;DHT22;70683;52.492;13.416;2023-07-31T02:36:48;17.60;83.10
80279;DHT22;70683;52.492;13.416;2023-07-31T02:39:14;17.60;83.30
80279;DHT22;70683;52.492;13.416;2023-07-31T02:41:41;17.60;83.20
80279;DHT22;70683;52.492;13.416;2023-07-31T02:44:07;17.50;83.40
80279;DHT22;70683;52.492;13.416;2023-07-31T02:46:34;17.60;83.20
80279;DHT22;70683;52.492;13.416;2023-07-31T02:49:01;17.60;83.20
80279;DHT22;70683;52.492;13.416;2023-07-31T02:51:27;17.60;83.40
80279;DHT22;70683;52.492;13.416;2023-07-31T02:53:54;17.60;83.80
80279;DHT22;70683;52.492;13.416;2023-07-31T02:56:20;17.60;83.80
80279;DHT22;70683;52.492;13.416;2023-07-31T02:58:47;17.60;84.40
80279;DHT22;70683;52.492;13.416;2023-07-31T03:01:14;17.60;84.50
80279;DHT22;70683;52.492;13.416;2023-07-31T03:03:41;17.50;84.20
80279;DHT22;70683;52.492;13.416;2023-07-31T03:06:08;17.50;84.10
80279;DHT22;70683;52.492;13.416;2023-07-31T03:08:34;17.50;83.90
80279;DHT22;70683;52.492;13.416;2023-07-31T03:11:01;17.50;83.90
80279;DHT22;70683;52.492;13.416;2023-07-31T03:13:28;17.40;84.50
80279;DHT22;70683;52.492;13.416;2023-07-31T03:15:54;17.40;84.30
80279;DHT22;70683;52.492;13.416;2023-07-31T03:18:21;17.40;84.50
80279;DHT22;70683;52.492;13.416;2023-07-31T03:20:47;17.40;84.20
80279;DHT22;70683;52.492;13.416;2023-07-31T03:23:14;17.40;84.70
80279;DHT22;70683;52.492;13.416;2023-07-31T03:25:55;17.40;84.80
80279;DHT22;70683;52.492;13.416;2023-07-31T03:28:11;17.40;85.00
80279;DHT22;70683;52.492;13.416;2023-07-31T03:30:38;17.40;85.10
80279;DHT22;70683;52.492;13.416;2023-07-31T03:33:04;17.30;85.30
80279;DHT22;70683;52.492;13.416;2023-07-31T03:35:31;17.30;85.60
80279;DHT22;70683;52.492;13.416;2023-07-31T03:37:58;17.30;85.70
80279;DHT22;70683;52.492;13.416;2023-07-31T03:40:24;17.40;85.90
80279;DHT22;70683;52.492;13.416;2023-07-31T03:42:51;17.40;86.90
80279;DHT22;70683;52.492;13.416;2023-07-31T03:45:18;17.30;85.90
80279;DHT22;70683;52.492;13.416;2023-07-31T03:47:44;17.30;85.60
80279;DHT22;70683;52.492;13.416;2023-07-31T03:50:11;17.30;86.00
80279;DHT22;70683;52.492;13.416;2023-07-31T03:52:38;17.30;86.20
80279;DHT22;70683;52.492;13.416;2023-07-31T03:55:05;17.40;86.50
80279;DHT22;70683;52.492;13.416;2023-07-31T03:57:31;17.40;86.40
80279;DHT22;70683;52.492;13.416;2023-07-31T03:59:58;17.50;85.30
80279;DHT22;70683;52.492;13.416;2023-07-31T04:02:25;17.50;85.60
80279;DHT22;70683;52.492;13.416;2023-07-31T04:04:52;17.50;85.00
80279;DHT22;70683;52.492;13.416;2023-07-31T04:07:18;17.50;85.10
80279;DHT22;70683;52.492;13.416;2023-07-31T04:09:45;17.50;85.40
80279;DHT22;70683;52.492;13.416;2023-07-31T04:12:12;17.40;85.70
80279;DHT22;70683;52.492;13.416;2023-07-31T04:14:38;17.50;85.80
80279;DHT22;70683;52.492;13.416;2023-07-31T04:17:05;17.50;85.50
80279;DHT22;70683;52.492;13.416;2023-07-31T04:19:32;17.50;85.20
80279;DHT22;70683;52.492;13.416;2023-07-31T04:21:59;17.50;85.10
80279;DHT22;70683;52.492;13.416;2023-07-31T04:24:25;17.50;85.30
80279;DHT22;70683;52.492;13.416;2023-07-31T04:26:52;17.60;84.80
80279;DHT22;70683;52.492;13.416;2023-07-31T04:29:20;17.60;84.80
80279;DHT22;70683;52.492;13.416;2023-07-31T04:31:48;17.50;85.00
80279;DHT22;70683;52.492;13.416;2023-07-31T04:34:15;17.60;85.10
80279;DHT22;70683;52.492;13.416;2023-07-31T04:36:41;17.60;84.80
80279;DHT22;70683;52.492;13.416;2023-07-31T04:39:08;17.70;84.60
80279;DHT22;70683;52.492;13.416;2023-07-31T04:41:35;17.70;84.00
80279;DHT22;70683;52.492;13.416;2023-07-31T04:44:01;17.70;84.50
80279;DHT22;70683;52.492;13.416;2023-07-31T04:46:30;17.70;84.90
80279;DHT22;70683;52.492;13.416;2023-07-31T04:48:57;17.70;84.70
80279;DHT22;70683;52.492;13.416;2023-07-31T04:51:23;17.70;85.40
80279;DHT22;70683;52.492;13.416;2023-07-31T04:53:51;17.60;85.80
80279;DHT22;70683;52.492;13.416;2023-07-31T04:56:17;17.60;86.10
80279;DHT22;70683;52.492;13.416;2023-07-31T04:58:44;17.60;85.90
80279;DHT22;70683;52.492;13.416;2023-07-31T05:01:11;17.60;86.00
80279;DHT22;70683;52.492;13.416;2023-07-31T05:03:37;17.70;86.20
80279;DHT22;70683;52.492;13.416;2023-07-31T05:06:04;17.70;86.20
80279;DHT22;70683;52.492;13.416;2023-07-31T05:08:30;17.70;85.70
80279;DHT22;70683;52.492;13.416;2023-07-31T05:10:57;17.80;86.00
80279;DHT22;70683;52.492;13.416;2023-07-31T05:13:24;17.80;84.70
80279;DHT22;70683;52.492;13.416;2023-07-31T05:15:50;17.90;84.90
80279;DHT22;70683;52.492;13.416;2023-07-31T05:18:17;17.90;84.50
80279;DHT22;70683;52.492;13.416;2023-07-31T05:20:43;17.90;84.80
80279;DHT22;70683;52.492;13.416;2023-07-31T05:23:10;17.90;85.20
80279;DHT22;70683;52.492;13.416;2023-07-31T05:25:37;18.00;85.50
80279;DHT22;70683;52.492;13.416;2023-07-31T05:28:03;18.00;84.40
80279;DHT22;70683;52.492;13.416;2023-07-31T05:30:30;18.00;84.80
80279;DHT22;70683;52.492;13.416;2023-07-31T05:32:57;18.10;84.90
80279;DHT22;70683;52.492;13.416;2023-07-31T05:35:24;18.10;83.60
80279;DHT22;70683;52.492;13.416;2023-07-31T05:37:50;18.10;83.70
80279;DHT22;70683;52.492;13.416;2023-07-31T05:40:17;18.10;83.60
80279;DHT22;70683;52.492;13.416;2023-07-31T05:42:44;18.10;84.80
80279;DHT22;70683;52.492;13.416;2023-07-31T05:45:10;18.10;84.40
80279;DHT22;70683;52.492;13.416;2023-07-31T05:47:37;18.10;85.50
80279;DHT22;70683;52.492;13.416;2023-07-31T05:50:04;18.20;84.40
80279;DHT22;70683;52.492;13.416;2023-07-31T05:52:31;18.20;84.30
80279;DHT22;70683;52.492;13.416;2023-07-31T05:54:57;18.10;84.50
80279;DHT22;70683;52.492;13.416;2023-07-31T05:57:24;18.10;84.70
80279;DHT22;70683;52.492;13.416;2023-07-31T05:59:51;18.20;84.30
80279;DHT22;70683;52.492;13.416;2023-07-31T06:02:19;18.20;84.10
80279;DHT22;70683;52.492;13.416;2023-07-31T06:04:46;18.30;83.70
80279;DHT22;70683;52.492;13.416;2023-07-31T06:07:12;18.20;84.50
80279;DHT22;70683;52.492;13.416;2023-07-31T06:09:39;18.30;85.00
80279;DHT22;70683;52.492;13.416;2023-07-31T06:12:06;18.30;84.40
80279;DHT22;70683;52.492;13.416;2023-07-31T06:14:33;18.30;84.10
80279;DHT22;70683;52.492;13.416;2023-07-31T06:16:59;18.40;84.00
80279;DHT22;70683;52.492;13.416;2023-07-31T06:19:26;18.40;84.10
80279;DHT22;70683;52.492;13.416;2023-07-31T06:21:53;18.50;83.90
80279;DHT22;70683;52.492;13.416;2023-07-31T06:24:19;18.50;83.60
80279;DHT22;70683;52.492;13.416;2023-07-31T06:26:47;18.50;83.20
80279;DHT22;70683;52.492;13.416;2023-07-31T06:29:14;18.50;83.60
80279;DHT22;70683;52.492;13.416;2023-07-31T06:31:41;18.60;83.80
80279;DHT22;70683;52.492;13.416;2023-07-31T06:34:07;18.60;83.90
80279;DHT22;70683;52.492;13.416;2023-07-31T06:36:34;18.60;83.80
80279;DHT22;70683;52.492;13.416;2023-07-31T06:39:00;18.60;84.20
80279;DHT22;70683;52.492;13.416;2023-07-31T06:41:27;18.70;84.30
80279;DHT22;70683;52.492;13.416;2023-07-31T06:43:54;18.70;84.00
80279;DHT22;70683;52.492;13.416;2023-07-31T06:46:20;18.90;83.30
80279;DHT22;70683;52.492;13.416;2023-07-31T06:48:47;18.90;83.60
80279;DHT22;70683;52.492;13.416;2023-07-31T06:51:13;19.00;82.40
80279;DHT22;70683;52.492;13.416;2023-07-31T06:53:40;19.10;82.80
80279;DHT22;70683;52.492;13.416;2023-07-31T06:56:07;19.10;81.90
80279;DHT22;70683;52.492;13.416;2023-07-31T06:58:34;19.10;81.70
80279;DHT22;70683;52.492;13.416;2023-07-31T07:01:00;19.10;82.40
80279;DHT22;70683;52.492;13.416;2023-07-31T07:03:27;19.10;82.10
80279;DHT22;70683;52.492;13.416;2023-07-31T07:05:53;19.20;81.90
80279;DHT22;70683;52.492;13.416;2023-07-31T07:08:20;19.20;82.00
80279;DHT22;70683;52.492;13.416;2023-07-31T07:10:47;19.20;81.70
80279;DHT22;70683;52.492;13.416;2023-07-31T07:13:14;19.20;80.90
80279;DHT22;70683;52.492;13.416;2023-07-31T07:15:40;19.10;81.20
80279;DHT22;70683;52.492;13.416;2023-07-31T07:18:07;19.10;81.80
80279;DHT22;70683;52.492;13.416;2023-07-31T07:20:33;19.10;81.50
80279;DHT22;70683;52.492;13.416;2023-07-31T07:23:00;19.00;81.80
80279;DHT22;70683;52.492;13.416;2023-07-31T07:25:27;19.10;82.10
80279;DHT22;70683;52.492;13.416;2023-07-31T07:27:53;19.20;80.90
80279;DHT22;70683;52.492;13.416;2023-07-31T07:30:20;19.10;81.70
80279;DHT22;70683;52.492;13.416;2023-07-31T07:32:47;19.20;81.90
80279;DHT22;70683;52.492;13.416;2023-07-31T07:35:13;19.30;82.00
80279;DHT22;70683;52.492;13.416;2023-07-31T07:37:40;19.50;80.50
80279;DHT22;70683;52.492;13.416;2023-07-31T07:40:08;19.60;80.10
80279;DHT22;70683;52.492;13.416;2023-07-31T07:42:35;19.70;79.40
80279;DHT22;70683;52.492;13.416;2023-07-31T07:45:01;19.80;80.10
80279;DHT22;70683;52.492;13.416;2023-07-31T07:47:29;19.90;80.10
80279;DHT22;70683;52.492;13.416;2023-07-31T07:49:55;20.00;78.90
80279;DHT22;70683;52.492;13.416;2023-07-31T07:52:22;20.10;78.50
80279;DHT22;70683;52.492;13.416;2023-07-31T07:54:49;20.30;78.20
80279;DHT22;70683;52.492;13.416;2023-07-31T07:57:16;20.40;77.50
80279;DHT22;70683;52.492;13.416;2023-07-31T07:59:42;20.50;77.30
80279;DHT22;70683;52.492;13.416;2023-07-31T08:02:09;20.40;76.10
80279;DHT22;70683;52.492;13.416;2023-07-31T08:04:35;20.30;76.60
80279;DHT22;70683;52.492;13.416;2023-07-31T08:07:02;20.40;76.70
80279;DHT22;70683;52.492;13.416;2023-07-31T08:09:29;20.30;76.80
80279;DHT22;70683;52.492;13.416;2023-07-31T08:11:55;20.20;78.60
80279;DHT22;70683;52.492;13.416;2023-07-31T08:14:24;20.10;78.70
80279;DHT22;70683;52.492;13.416;2023-07-31T08:16:51;20.00;79.00
80279;DHT22;70683;52.492;13.416;2023-07-31T08:19:18;19.90;79.60
80279;DHT22;70683;52.492;13.416;2023-07-31T08:21:44;19.80;79.40
80279;DHT22;70683;52.492;13.416;2023-07-31T08:24:11;19.80;80.20
80279;DHT22;70683;52.492;13.416;2023-07-31T08:26:38;19.70;80.30
80279;DHT22;70683;52.492;13.416;2023-07-31T08:29:04;19.70;81.40
80279;DHT22;70683;52.492;13.416;2023-07-31T08:31:31;19.80;80.50
80279;DHT22;70683;52.492;13.416;2023-07-31T08:33:58;19.70;81.30
80279;DHT22;70683;52.492;13.416;2023-07-31T08:36:25;19.70;81.80
80279;DHT22;70683;52.492;13.416;2023-07-31T08:38:52;19.80;81.20
80279;DHT22;70683;52.492;13.416;2023-07-31T08:41:18;19.90;80.90
80279;DHT22;70683;52.492;13.416;2023-07-31T08:43:46;19.90;81.00
80279;DHT22;70683;52.492;13.416;2023-07-31T08:46:14;19.90;80.60
80279;DHT22;70683;52.492;13.416;2023-07-31T08:48:43;20.00;81.10
80279;DHT22;70683;52.492;13.416;2023-07-31T08:51:10;20.00;80.60
80279;DHT22;70683;52.492;13.416;2023-07-31T08:53:37;20.10;80.30
80279;DHT22;70683;52.492;13.416;2023-07-31T08:56:05;20.10;80.30
80279;DHT22;70683;52.492;13.416;2023-07-31T08:58:32;20.30;79.50
80279;DHT22;70683;52.492;13.416;2023-07-31T09:01:02;20.40;79.20
80279;DHT22;70683;52.492;13.416;2023-07-31T09:03:33;20.50;78.30
80279;DHT22;70683;52.492;13.416;2023-07-31T09:06:00;20.60;78.20
80279;DHT22;70683;52.492;13.416;2023-07-31T09:08:30;20.60;77.60
80279;DHT22;70683;52.492;13.416;2023-07-31T09:11:00;20.70;76.70
80279;DHT22;70683;52.492;13.416;2023-07-31T09:13:30;20.80;76.60
80279;DHT22;70683;52.492;13.416;2023-07-31T09:15:58;20.90;76.10
80279;DHT22;70683;52.492;13.416;2023-07-31T09:18:25;20.90;76.60
80279;DHT22;70683;52.492;13.416;2023-07-31T09:21:01;21.00;75.90
80279;DHT22;70683;52.492;13.416;2023-07-31T09:26:03;21.00;75.00
80279;DHT22;70683;52.492;13.416;2023-07-31T09:28:31;21.00;74.80
80279;DHT22;70683;52.492;13.416;2023-07-31T09:30:58;20.90;75.70
80279;DHT22;70683;52.492;13.416;2023-07-31T09:33:25;20.90;75.10
80279;DHT22;70683;52.492;13.416;2023-07-31T09:35:52;20.70;76.40
80279;DHT22;70683;52.492;13.416;2023-07-31T09:38:19;20.40;77.70
80279;DHT22;70683;52.492;13.416;2023-07-31T09:40:47;20.20;78.50
80279;DHT22;70683;52.492;13.416;2023-07-31T09:43:19;20.00;79.70
80279;DHT22;70683;52.492;13.416;2023-07-31T09:45:46;19.90;80.40
80279;DHT22;70683;52.492;13.416;2023-07-31T09:48:16;19.80;80.30
80279;DHT22;70683;52.492;13.416;2023-07-31T09:50:45;19.80;81.00
80279;DHT22;70683;52.492;13.416;2023-07-31T09:53:13;19.70;80.70
80279;DHT22;70683;52.492;13.416;2023-07-31T09:55:41;19.80;80.80
80279;DHT22;70683;52.492;13.416;2023-07-31T09:58:11;19.80;79.70
80279;DHT22;70683;52.492;13.416;2023-07-31T10:00:38;19.90;80.10
80279;DHT22;70683;52.492;13.416;2023-07-31T10:03:09;19.90;80.00
80279;DHT22;70683;52.492;13.416;2023-07-31T10:05:39;20.00;79.80
80279;DHT22;70683;52.492;13.416;2023-07-31T10:08:09;20.10;80.00
80279;DHT22;70683;52.492;13.416;2023-07-31T10:10:36;20.30;79.50
80279;DHT22;70683;52.492;13.416;2023-07-31T10:13:04;20.40;78.60
80279;DHT22;70683;52.492;13.416;2023-07-31T10:15:31;20.50;78.30
80279;DHT22;70683;52.492;13.416;2023-07-31T10:17:59;20.70;77.50
80279;DHT22;70683;52.492;13.416;2023-07-31T10:20:26;20.90;77.90
80279;DHT22;70683;52.492;13.416;2023-07-31T10:22:55;20.90;76.60
80279;DHT22;70683;52.492;13.416;2023-07-31T10:25:22;21.00;75.80
80279;DHT22;70683;52.492;13.416;2023-07-31T10:27:50;21.00;75.20
80279;DHT22;70683;52.492;13.416;2023-07-31T10:30:22;20.90;76.00
80279;DHT22;70683;52.492;13.416;2023-07-31T10:32:49;20.80;76.60
80279;DHT22;70683;52.492;13.416;2023-07-31T10:35:17;20.80;77.30
80279;DHT22;70683;52.492;13.416;2023-07-31T10:37:44;20.80;77.70
80279;DHT22;70683;52.492;13.416;2023-07-31T10:40:17;20.90;78.20
80279;DHT22;70683;52.492;13.416;2023-07-31T10:42:48;21.00;76.90
80279;DHT22;70683;52.492;13.416;2023-07-31T10:45:34;21.10;77.30
80279;DHT22;70683;52.492;13.416;2023-07-31T10:48:05;21.20;76.50
80279;DHT22;70683;52.492;13.416;2023-07-31T10:50:37;21.50;75.40
80279;DHT22;70683;52.492;13.416;2023-07-31T10:53:04;22.00;74.60
80279;DHT22;70683;52.492;13.416;2023-07-31T10:55:40;22.50;72.90
80279;DHT22;70683;52.492;13.416;2023-07-31T10:58:11;23.10;70.10
80279;DHT22;70683;52.492;13.416;2023-07-31T11:00:39;23.50;68.80
80279;DHT22;70683;52.492;13.416;2023-07-31T11:03:10;23.80;66.80
80279;DHT22;70683;52.492;13.416;2023-07-31T11:05:47;24.00;65.90
80279;DHT22;70683;52.492;13.416;2023-07-31T11:08:31;24.20;64.80
80279;DHT22;70683;52.492;13.416;2023-07-31T11:11:07;24.60;63.70
80279;DHT22;70683;52.492;13.416;2023-07-31T11:13:41;24.90;62.10
80279;DHT22;70683;52.492;13.416;2023-07-31T11:16:09;25.10;60.10
80279;DHT22;70683;52.492;13.416;2023-07-31T11:18:39;25.00;59.00
80279;DHT22;70683;52.492;13.416;2023-07-31T11:21:07;24.80;58.80
80279;DHT22;70683;52.492;13.416;2023-07-31T11:23:36;24.60;60.10
80279;DHT22;70683;52.492;13.416;2023-07-31T11:26:02;24.70;58.40
80279;DHT22;70683;52.492;13.416;2023-07-31T11:28:33;24.80;58.10
80279;DHT22;70683;52.492;13.416;2023-07-31T11:31:01;24.90;57.50
80279;DHT22;70683;52.492;13.416;2023-07-31T11:33:28;24.90;58.10
80279;DHT22;70683;52.492;13.416;2023-07-31T11:35:55;25.00;57.90
80279;DHT22;70683;52.492;13.416;2023-07-31T11:38:24;25.00;57.40
80279;DHT22;70683;52.492;13.416;2023-07-31T11:40:53;25.00;57.10
80279;DHT22;70683;52.492;13.416;2023-07-31T11:43:21;25.00;56.30
80279;DHT22;70683;52.492;13.416;2023-07-31T11:45:52;25.00;56.50
80279;DHT22;70683;52.492;13.416;2023-07-31T11:48:21;24.90;56.40
80279;DHT22;70683;52.492;13.416;2023-07-31T11:50:49;24.70;56.20
80279;DHT22;70683;52.492;13.416;2023-07-31T11:53:20;24.60;56.60
80279;DHT22;70683;52.492;13.416;2023-07-31T11:55:48;24.40;57.10
80279;DHT22;70683;52.492;13.416;2023-07-31T11:58:16;24.30;58.20
80279;DHT22;70683;52.492;13.416;2023-07-31T12:00:44;24.20;58.00
80279;DHT22;70683;52.492;13.416;2023-07-31T12:03:11;24.00;58.00
80279;DHT22;70683;52.492;13.416;2023-07-31T12:05:38;23.80;58.40
80279;DHT22;70683;52.492;13.416;2023-07-31T12:08:10;23.60;59.00
80279;DHT22;70683;52.492;13.416;2023-07-31T12:10:38;23.50;59.40
80279;DHT22;70683;52.492;13.416;2023-07-31T12:13:08;23.40;60.10
80279;DHT22;70683;52.492;13.416;2023-07-31T12:15:40;23.50;60.10
80279;DHT22;70683;52.492;13.416;2023-07-31T12:18:09;23.60;59.80
80279;DHT22;70683;52.492;13.416;2023-07-31T12:20:42;23.70;59.40
80279;DHT22;70683;52.492;13.416;2023-07-31T12:23:27;23.70;59.10
80279;DHT22;70683;52.492;13.416;2023-07-31T12:26:01;23.80;58.10
80279;DHT22;70683;52.492;13.416;2023-07-31T12:28:28;23.70;58.80
80279;DHT22;70683;52.492;13.416;2023-07-31T12:30:59;23.80;58.80
80279;DHT22;70683;52.492;13.416;2023-07-31T12:33:34;23.80;58.00
80279;DHT22;70683;52.492;13.416;2023-07-31T12:36:03;24.10;57.20
80279;DHT22;70683;52.492;13.416;2023-07-31T12:38:30;24.30;56.30
80279;DHT22;70683;52.492;13.416;2023-07-31T12:40:57;24.60;55.60
80279;DHT22;70683;52.492;13.416;2023-07-31T12:43:24;24.70;55.60
80279;DHT22;70683;52.492;13.416;2023-07-31T12:45:51;24.70;55.50
80279;DHT22;70683;52.492;13.416;2023-07-31T12:48:18;24.70;55.60
80279;DHT22;70683;52.492;13.416;2023-07-31T12:50:44;24.70;56.50
80279;DHT22;70683;52.492;13.416;2023-07-31T12:53:11;24.70;56.50
80279;DHT22;70683;52.492;13.416;2023-07-31T12:55:37;24.70;56.50
80279;DHT22;70683;52.492;13.416;2023-07-31T12:58:04;24.60;56.70
80279;DHT22;70683;52.492;13.416;2023-07-31T13:00:31;24.60;56.30
80279;DHT22;70683;52.492;13.416;2023-07-31T13:02:57;24.50;56.80
80279;DHT22;70683;52.492;13.416;2023-07-31T13:05:24;24.50;56.50
80279;DHT22;70683;52.492;13.416;2023-07-31T13:07:51;24.40;56.60
80279;DHT22;70683;52.492;13.416;2023-07-31T13:10:18;24.30;56.70
80279;DHT22;70683;52.492;13.416;2023-07-31T13:12:44;24.20;57.10
80279;DHT22;70683;52.492;13.416;2023-07-31T13:15:12;24.10;57.50
80279;DHT22;70683;52.492;13.416;2023-07-31T13:17:39;24.00;57.40
80279;DHT22;70683;52.492;13.416;2023-07-31T13:20:06;24.00;57.60
80279;DHT22;70683;52.492;13.416;2023-07-31T13:22:33;23.90;57.50
80279;DHT22;70683;52.492;13.416;2023-07-31T13:25:00;23.90;58.10
80279;DHT22;70683;52.492;13.416;2023-07-31T13:27:27;23.70;58.60
80279;DHT22;70683;52.492;13.416;2023-07-31T13:29:54;23.70;58.50
80279;DHT22;70683;52.492;13.416;2023-07-31T13:32:21;23.60;58.90
80279;DHT22;70683;52.492;13.416;2023-07-31T13:34:48;23.50;59.70
80279;DHT22;70683;52.492;13.416;2023-07-31T13:37:16;23.40;60.10
80279;DHT22;70683;52.492;13.416;2023-07-31T13:39:42;23.60;59.50
80279;DHT22;70683;52.492;13.416;2023-07-31T13:42:09;23.90;58.60
80279;DHT22;70683;52.492;13.416;2023-07-31T13:44:38;24.10;58.50
80279;DHT22;70683;52.492;13.416;2023-07-31T13:47:06;24.30;57.70
80279;DHT22;70683;52.492;13.416;2023-07-31T13:49:33;24.40;57.70
80279;DHT22;70683;52.492;13.416;2023-07-31T13:52:00;24.50;57.20
80279;DHT22;70683;52.492;13.416;2023-07-31T13:54:27;24.60;56.90
80279;DHT22;70683;52.492;13.416;2023-07-31T13:56:54;24.70;56.60
80279;DHT22;70683;52.492;13.416;2023-07-31T13:59:20;24.70;56.30
80279;DHT22;70683;52.492;13.416;2023-07-31T14:01:47;24.70;56.50
80279;DHT22;70683;52.492;13.416;2023-07-31T14:04:14;24.70;56.40
80279;DHT22;70683;52.492;13.416;2023-07-31T14:06:41;24.70;56.50
80279;DHT22;70683;52.492;13.416;2023-07-31T14:09:07;24.80;56.70
80279;DHT22;70683;52.492;13.416;2023-07-31T14:11:34;24.90;56.20
80279;DHT22;70683;52.492;13.416;2023-07-31T14:14:01;24.80;56.40
80279;DHT22;70683;52.492;13.416;2023-07-31T14:16:28;24.80;56.20
80279;DHT22;70683;52.492;13.416;2023-07-31T14:18:54;24.80;56.50
80279;DHT22;70683;52.492;13.416;2023-07-31T14:21:21;24.80;55.90
80279;DHT22;70683;52.492;13.416;2023-07-31T14:23:48;24.90;55.90
80279;DHT22;70683;52.492;13.416;2023-07-31T14:26:14;24.80;56.20
80279;DHT22;70683;52.492;13.416;2023-07-31T14:28:42;24.70;56.50
80279;DHT22;70683;52.492;13.416;2023-07-31T14:31:09;24.60;57.30
80279;DHT22;70683;52.492;13.416;2023-07-31T14:33:36;24.50;57.30
80279;DHT22;70683;52.492;13.416;2023-07-31T14:36:02;24.50;57.00
80279;DHT22;70683;52.492;13.416;2023-07-31T14:38:29;24.50;56.70
80279;DHT22;70683;52.492;13.416;2023-07-31T14:40:56;24.40;57.00
80279;DHT22;70683;52.492;13.416;2023-07-31T14:43:22;24.50;56.80
80279;DHT22;70683;52.492;13.416;2023-07-31T14:45:49;24.40;57.10
80279;DHT22;70683;52.492;13.416;2023-07-31T14:48:16;24.40;57.10
80279;DHT22;70683;52.492;13.416;2023-07-31T14:50:42;24.30;57.50
80279;DHT22;70683;52.492;13.416;2023-07-31T14:53:09;24.40;57.30
80279;DHT22;70683;52.492;13.416;2023-07-31T14:55:35;24.40;57.40
80279;DHT22;70683;52.492;13.416;2023-07-31T14:58:02;24.40;56.00
80279;DHT22;70683;52.492;13.416;2023-07-31T15:00:29;24.50;55.90
80279;DHT22;70683;52.492;13.416;2023-07-31T15:02:55;24.30;56.00
80279;DHT22;70683;52.492;13.416;2023-07-31T15:05:22;24.20;56.70
80279;DHT22;70683;52.492;13.416;2023-07-31T15:07:49;24.20;56.80
80279;DHT22;70683;52.492;13.416;2023-07-31T15:10:15;24.10;57.00
80279;DHT22;70683;52.492;13.416;2023-07-31T15:12:42;24.10;57.20
80279;DHT22;70683;52.492;13.416;2023-07-31T15:15:09;24.00;57.40
80279;DHT22;70683;52.492;13.416;2023-07-31T15:17:36;24.00;57.80
80279;DHT22;70683;52.492;13.416;2023-07-31T15:20:03;23.90;58.30
80279;DHT22;70683;52.492;13.416;2023-07-31T15:22:29;23.80;58.70